createdAt,value
2023-03-15T00:01:44.149Z,0.61
2023-03-15T00:05:43.763Z,0.58
2023-03-15T00:09:43.440Z,0.58
2023-03-15T00:13:43.075Z,0.63
2023-03-15T00:17:42.740Z,0.62
2023-03-15T00:21:42.412Z,0.57
2023-03-15T00:25:42.041Z,0.59
2023-03-15T00:29:41.792Z,0.56
2023-03-15T00:33:41.423Z,0.69
2023-03-15T00:37:41.084Z,0.76
2023-03-15T00:41:40.737Z,0.75
2023-03-15T00:45:40.374Z,0.78
2023-03-15T00:49:40.066Z,0.76
2023-03-15T00:53:39.715Z,0.78
2023-03-15T00:57:39.405Z,0.67
2023-03-15T01:01:39.268Z,0.54
2023-03-15T01:05:39.077Z,0.58
2023-03-15T01:09:38.856Z,0.57
2023-03-15T01:13:38.672Z,0.56
2023-03-15T01:17:38.459Z,0.60
2023-03-15T01:21:38.266Z,0.60
2023-03-15T01:25:38.075Z,0.55
2023-03-15T01:29:37.880Z,0.55
2023-03-15T01:33:37.686Z,0.51
2023-03-15T01:37:37.496Z,0.51
2023-03-15T01:41:37.307Z,0.61
2023-03-15T01:45:37.091Z,0.62
2023-03-15T01:49:36.924Z,0.62
2023-03-15T01:53:36.720Z,0.54
2023-03-15T01:57:36.523Z,0.60
2023-03-15T02:01:36.323Z,0.66
2023-03-15T02:05:36.204Z,0.54
2023-03-15T02:09:36.004Z,0.50
2023-03-15T02:13:35.790Z,0.58
2023-03-15T02:17:35.646Z,0.57
2023-03-15T02:21:35.491Z,0.53
2023-03-15T02:25:35.309Z,0.54
2023-03-15T02:29:35.136Z,0.62
2023-03-15T02:33:34.958Z,0.63
2023-03-15T02:37:34.786Z,0.63
2023-03-15T02:41:34.653Z,0.64
2023-03-15T02:45:34.505Z,0.69
2023-03-15T02:49:34.328Z,0.72
2023-03-15T02:53:34.179Z,0.71
2023-03-15T02:57:34.041Z,0.71
2023-03-15T03:01:33.904Z,0.74
2023-03-15T03:05:33.720Z,0.69
2023-03-15T03:09:33.632Z,0.63
2023-03-15T03:13:33.407Z,0.56
2023-03-15T03:17:33.290Z,0.58
2023-03-15T03:21:33.067Z,0.56
2023-03-15T03:25:32.860Z,0.58
2023-03-15T03:29:32.708Z,0.64
2023-03-15T03:33:32.566Z,0.65
2023-03-15T03:37:32.892Z,0.65
2023-03-15T03:41:32.213Z,0.62
2023-03-15T03:45:32.054Z,0.63
2023-03-15T03:49:31.909Z,0.66
2023-03-15T03:53:31.781Z,0.64
2023-03-15T03:57:31.657Z,0.67
2023-03-15T04:01:31.551Z,0.66
2023-03-15T04:05:31.384Z,0.67
2023-03-15T04:09:31.268Z,0.68
2023-03-15T04:13:31.119Z,0.55
2023-03-15T04:17:30.941Z,0.75
2023-03-15T04:21:30.791Z,0.69
2023-03-15T04:25:30.684Z,0.68
2023-03-15T04:29:30.558Z,0.65
2023-03-15T04:33:30.435Z,0.53
2023-03-15T04:37:30.311Z,0.65
2023-03-15T04:41:30.257Z,0.58
2023-03-15T04:45:30.113Z,0.54
2023-03-15T04:49:30.030Z,0.62
2023-03-15T04:53:29.935Z,0.71
2023-03-15T04:57:29.823Z,0.57
2023-03-15T05:01:29.470Z,0.54
2023-03-15T05:05:29.117Z,0.50
2023-03-15T05:09:28.802Z,0.57
2023-03-15T05:13:28.429Z,0.70
2023-03-15T05:17:28.065Z,0.93
2023-03-15T05:21:27.704Z,1.02
2023-03-15T05:25:27.350Z,0.70
2023-03-15T05:29:27.018Z,0.56
2023-03-15T05:33:26.673Z,0.62
2023-03-15T05:37:26.293Z,1.03
2023-03-15T05:41:26.145Z,0.84
2023-03-15T05:45:25.812Z,0.75
2023-03-15T05:49:25.502Z,0.95
2023-03-15T05:53:25.087Z,1.29
2023-03-15T05:57:24.729Z,1.31
2023-03-15T06:01:24.352Z,1.54
2023-03-15T06:05:24.002Z,1.81
2023-03-15T06:09:23.647Z,1.98
2023-03-15T06:13:23.321Z,2.39
2023-03-15T06:17:22.937Z,2.98
2023-03-15T06:21:22.609Z,3.16
2023-03-15T06:25:22.204Z,3.07
2023-03-15T06:29:21.863Z,3.35
2023-03-15T06:33:21.514Z,4.05
2023-03-15T06:37:34.137Z,4.10
2023-03-15T06:41:21.984Z,4.47
2023-03-15T06:45:20.558Z,5.22
2023-03-15T06:49:20.096Z,4.74
2023-03-15T06:53:19.727Z,4.65
2023-03-15T06:57:20.015Z,4.78
2023-03-15T07:01:19.564Z,4.78
2023-03-15T07:05:18.835Z,4.67
2023-03-15T07:09:18.974Z,4.42
2023-03-15T07:13:18.525Z,3.82
2023-03-15T07:17:18.204Z,3.29
2023-03-15T07:21:18.512Z,3.07
2023-03-15T07:25:17.662Z,2.81
2023-03-15T07:29:17.377Z,2.69
2023-03-15T07:33:17.517Z,2.11
2023-03-15T07:37:16.949Z,1.88
2023-03-15T07:41:16.377Z,2.13
2023-03-15T07:45:16.486Z,2.08
2023-03-15T07:49:15.982Z,1.77
2023-03-15T07:53:15.676Z,2.14
2023-03-15T07:57:15.280Z,3.43
2023-03-15T08:01:14.880Z,3.63
2023-03-15T08:05:14.998Z,2.88
2023-03-15T08:09:14.118Z,2.16
2023-03-15T08:13:13.765Z,2.62
2023-03-15T08:17:13.376Z,2.31
2023-03-15T08:21:12.956Z,2.21
2023-03-15T08:25:12.605Z,2.39
2023-03-15T08:29:12.482Z,2.02
2023-03-15T08:33:11.853Z,2.27
2023-03-15T08:37:11.491Z,2.01
2023-03-15T08:41:11.591Z,1.96
2023-03-15T08:45:11.069Z,2.98
2023-03-15T08:49:10.989Z,3.57
2023-03-15T08:53:10.402Z,4.10
2023-03-15T08:57:10.507Z,4.08
2023-03-15T09:01:10.109Z,4.29
2023-03-15T09:05:10.003Z,4.06
2023-03-15T09:09:09.871Z,3.98
2023-03-15T09:13:09.720Z,3.56
2023-03-15T09:17:09.707Z,3.70
2023-03-15T09:21:09.541Z,3.81
2023-03-15T09:25:09.259Z,3.72
2023-03-15T09:29:09.120Z,4.19
2023-03-15T09:33:08.997Z,4.15
2023-03-15T09:37:09.030Z,5.29
2023-03-15T09:41:09.075Z,7.29
2023-03-15T09:45:08.447Z,9.14
2023-03-15T09:49:08.552Z,12.03
2023-03-15T09:53:08.139Z,12.84
2023-03-15T09:57:08.022Z,14.13
2023-03-15T10:01:07.758Z,14.05
2023-03-15T10:05:07.637Z,12.49
2023-03-15T10:09:07.376Z,11.67
2023-03-15T10:13:07.204Z,9.87
2023-03-15T10:17:07.554Z,8.98
2023-03-15T10:21:07.701Z,8.47
2023-03-15T10:25:06.743Z,9.60
2023-03-15T10:29:06.552Z,11.53
2023-03-15T10:33:06.539Z,8.78
2023-03-15T10:37:06.160Z,9.66
2023-03-15T10:41:06.157Z,8.67
2023-03-15T10:45:06.595Z,10.43
2023-03-15T10:49:05.583Z,10.35
2023-03-15T10:53:05.299Z,10.87
2023-03-15T10:57:05.054Z,11.95
2023-03-15T11:01:04.862Z,11.79
2023-03-15T11:05:05.135Z,11.64
2023-03-15T11:09:04.403Z,11.48
2023-03-15T11:13:04.238Z,11.42
2023-03-15T11:17:04.036Z,10.79
2023-03-15T11:21:04.057Z,11.05
2023-03-15T11:25:03.725Z,9.53
2023-03-15T11:29:03.536Z,10.42
2023-03-15T11:33:03.644Z,10.08
2023-03-15T11:37:08.527Z,8.31
2023-03-15T11:41:04.069Z,7.82
2023-03-15T11:45:02.841Z,8.57
2023-03-15T11:49:03.189Z,8.42
2023-03-15T11:53:02.464Z,8.20
2023-03-15T11:57:02.589Z,8.52
2023-03-15T12:01:02.035Z,8.83
2023-03-15T12:05:12.452Z,6.78
2023-03-15T12:09:02.383Z,7.14
2023-03-15T12:13:01.026Z,7.10
2023-03-15T12:17:00.751Z,6.76
2023-03-15T12:21:00.514Z,6.15
2023-03-15T12:25:00.319Z,5.85
2023-03-15T12:29:00.107Z,5.44
2023-03-15T12:33:00.092Z,4.17
2023-03-15T12:36:59.653Z,5.93
2023-03-15T12:40:59.479Z,5.18
2023-03-15T12:44:59.309Z,5.04
2023-03-15T12:48:59.170Z,5.85
2023-03-15T12:52:58.980Z,5.05
2023-03-15T12:56:58.775Z,4.25
2023-03-15T13:00:58.607Z,4.81
2023-03-15T13:04:58.412Z,4.45
2023-03-15T13:08:58.189Z,3.54
2023-03-15T13:12:58.094Z,3.78
2023-03-15T13:16:57.874Z,3.68
2023-03-15T13:20:57.698Z,3.45
2023-03-15T13:24:57.605Z,3.45
2023-03-15T13:28:57.307Z,3.65
2023-03-15T13:32:57.111Z,3.79
2023-03-15T13:36:56.833Z,3.67
2023-03-15T13:40:56.566Z,3.52
2023-03-15T13:44:56.349Z,3.04
2023-03-15T13:48:56.222Z,2.85
2023-03-15T13:52:55.948Z,2.64
2023-03-15T13:56:55.779Z,2.47
2023-03-15T14:00:55.580Z,2.25
2023-03-15T14:04:55.368Z,2.23
2023-03-15T14:08:55.168Z,2.51
2023-03-15T14:12:55.019Z,2.06
2023-03-15T14:17:04.964Z,1.98
2023-03-15T14:20:55.409Z,2.11
2023-03-15T14:24:54.088Z,2.53
2023-03-15T14:28:53.717Z,2.51
2023-03-15T14:32:53.412Z,2.17
2023-03-15T14:36:53.110Z,1.88
2023-03-15T14:40:52.965Z,1.69
2023-03-15T14:44:52.810Z,1.14
2023-03-15T14:48:52.670Z,0.94
2023-03-15T14:52:52.532Z,1.43
2023-03-15T14:56:52.438Z,1.58
2023-03-15T15:00:52.287Z,1.72
2023-03-15T15:04:52.022Z,1.83
2023-03-15T15:08:51.815Z,1.37
2023-03-15T15:13:04.920Z,1.66
2023-03-15T15:16:52.436Z,1.75
2023-03-15T15:20:50.938Z,1.84
2023-03-15T15:24:51.488Z,1.82
2023-03-15T15:28:50.506Z,1.78
2023-03-15T15:32:50.415Z,1.71
2023-03-15T15:36:50.153Z,1.68
2023-03-15T15:40:49.993Z,1.79
2023-03-15T15:44:49.841Z,1.66
2023-03-15T15:48:49.672Z,1.60
2023-03-15T15:52:49.484Z,1.67
2023-03-15T15:56:49.356Z,1.80
2023-03-15T16:00:49.155Z,1.79
2023-03-15T16:04:48.980Z,1.80
2023-03-15T16:08:48.823Z,1.70
2023-03-15T16:12:48.659Z,1.79
2023-03-15T16:16:48.454Z,1.71
2023-03-15T16:20:48.310Z,1.63
2023-03-15T16:24:48.119Z,1.79
2023-03-15T16:28:47.956Z,1.78
2023-03-15T16:32:47.838Z,1.75
2023-03-15T16:36:49.439Z,1.61
2023-03-15T16:40:47.548Z,1.57
2023-03-15T16:44:47.395Z,1.45
2023-03-15T16:48:47.224Z,1.51
2023-03-15T16:52:47.038Z,1.64
2023-03-15T16:56:46.881Z,1.65
2023-03-15T17:00:46.797Z,1.65
2023-03-15T17:04:46.664Z,1.53
2023-03-15T17:08:46.451Z,1.82
2023-03-15T17:12:46.317Z,1.83
2023-03-15T17:16:46.114Z,1.76
2023-03-15T17:20:45.981Z,1.95
2023-03-15T17:24:45.854Z,1.73
2023-03-15T17:28:45.642Z,1.64
2023-03-15T17:32:45.545Z,1.72
2023-03-15T17:36:45.347Z,1.69
2023-03-15T17:40:45.237Z,1.82
2023-03-15T17:44:45.039Z,1.77
2023-03-15T17:48:44.961Z,1.82
2023-03-15T17:52:44.824Z,1.83
2023-03-15T17:56:44.724Z,1.79
2023-03-15T18:00:44.609Z,1.54
2023-03-15T18:04:44.522Z,1.29
2023-03-15T18:08:44.142Z,1.01
2023-03-15T18:12:43.844Z,0.97
2023-03-15T18:16:43.525Z,1.03
2023-03-15T18:20:43.070Z,1.33
2023-03-15T18:24:44.382Z,1.27
2023-03-15T18:28:42.374Z,1.20
2023-03-15T18:32:41.997Z,1.20
2023-03-15T18:36:41.620Z,1.18
2023-03-15T18:40:41.235Z,1.17
2023-03-15T18:44:40.844Z,1.40
2023-03-15T18:48:41.244Z,1.27
2023-03-15T18:52:40.115Z,1.37
2023-03-15T18:56:39.752Z,1.15
2023-03-15T19:00:39.330Z,1.07
2023-03-15T19:04:38.997Z,1.06
2023-03-15T19:08:38.596Z,1.07
2023-03-15T19:12:38.266Z,1.06
2023-03-15T19:16:37.928Z,0.86
2023-03-15T19:20:37.482Z,0.88
2023-03-15T19:24:37.122Z,0.80
2023-03-15T19:28:37.693Z,0.83
2023-03-15T19:32:36.465Z,0.82
2023-03-15T19:36:36.041Z,0.65
2023-03-15T19:40:35.658Z,0.68
2023-03-15T19:44:35.291Z,0.74
2023-03-15T19:48:34.920Z,0.68
2023-03-15T19:52:34.537Z,0.64
2023-03-15T19:56:34.147Z,0.57
2023-03-15T20:00:33.820Z,0.61
2023-03-15T20:04:33.425Z,0.56
2023-03-15T20:08:33.041Z,0.60
2023-03-15T20:12:32.781Z,0.59
2023-03-15T20:16:32.642Z,0.61
2023-03-15T20:20:32.349Z,0.56
2023-03-15T20:24:32.746Z,0.55
2023-03-15T20:28:31.961Z,0.51
2023-03-15T20:32:31.767Z,0.65
2023-03-15T20:36:33.394Z,0.67
2023-03-15T20:40:31.353Z,0.59
2023-03-15T20:44:31.135Z,0.70
2023-03-15T20:48:31.054Z,0.75
2023-03-15T20:52:30.684Z,0.68
2023-03-15T20:56:30.529Z,0.70
2023-03-15T21:00:30.381Z,0.58
2023-03-15T21:04:30.164Z,0.54
2023-03-15T21:08:30.020Z,0.69
2023-03-15T21:12:29.865Z,0.69
2023-03-15T21:16:29.717Z,0.68
2023-03-15T21:20:29.496Z,0.69
2023-03-15T21:24:29.303Z,0.64
2023-03-15T21:28:29.168Z,0.58
2023-03-15T21:32:29.012Z,0.56
2023-03-15T21:36:28.816Z,0.60
2023-03-15T21:40:28.631Z,0.54
2023-03-15T21:44:28.513Z,0.57
2023-03-15T21:48:28.308Z,0.66
2023-03-15T21:52:28.339Z,0.74
2023-03-15T21:56:28.084Z,0.61
2023-03-15T22:00:27.948Z,0.75
2023-03-15T22:04:27.857Z,0.67
2023-03-15T22:08:27.687Z,0.74
2023-03-15T22:12:27.577Z,0.69
2023-03-15T22:16:27.464Z,0.73
2023-03-15T22:20:27.504Z,0.55
2023-03-15T22:24:27.242Z,0.75
2023-03-15T22:28:27.124Z,0.89
2023-03-15T22:32:27.047Z,0.80
2023-03-15T22:36:26.674Z,0.75
2023-03-15T22:40:26.757Z,0.84
2023-03-15T22:44:25.915Z,0.78
2023-03-15T22:48:25.568Z,0.85
2023-03-15T22:52:25.196Z,0.92
2023-03-15T22:56:24.848Z,0.58
2023-03-15T23:00:24.677Z,0.78
2023-03-15T23:04:24.292Z,0.74
2023-03-15T23:08:23.871Z,0.91
2023-03-15T23:12:33.840Z,0.70
2023-03-15T23:16:24.469Z,0.85
2023-03-15T23:20:23.128Z,0.79
2023-03-15T23:24:22.845Z,0.82
2023-03-15T23:28:22.499Z,0.56
2023-03-15T23:32:22.151Z,0.82
2023-03-15T23:36:21.787Z,0.72
2023-03-15T23:40:21.465Z,0.89
2023-03-15T23:44:21.098Z,0.73
2023-03-15T23:48:20.764Z,0.54
2023-03-15T23:52:20.381Z,0.70
2023-03-15T23:56:20.023Z,0.76
